Terminal Aerodrome Forecast
Issued by NWS

Home | Current Version | Previous Version | Text Only | Print | Product List | Glossary Off
Versions: 1 2 3 4 5 6 7 8 9 10 11 12 13 14 15 16 17 18 19 20 21 22 23 24 25 26

997
FTUS43 KBIS 250539
TAFMOT
TAF
KMOT 250539Z 2506/2606 20005KT P6SM -SN OVC040
     FM250800 24008KT P6SM -SN BKN025
     FM251000 25008KT 6SM -SN OVC020
     FM251300 29008KT P6SM OVC008
     FM251900 33008KT P6SM BKN020
     FM252100 30007KT P6SM VCSH BKN015
     FM260000 06005KT P6SM BKN015=

USA.gov is the U.S. government's official web portal to all federal, state and local government web resources and services.